sensor_id;sensor_type;location;lat;lon;timestamp;temperature;humidity
39777;DHT22;25453;48.162;14.510;2023-06-14T00:01:59;16.80;52.90
39777;DHT22;25453;48.162;14.510;2023-06-14T00:04:26;16.80;52.90
39777;DHT22;25453;48.162;14.510;2023-06-14T00:06:53;16.80;53.20
39777;DHT22;25453;48.162;14.510;2023-06-14T00:09:23;16.70;53.30
39777;DHT22;25453;48.162;14.510;2023-06-14T00:11:50;16.70;53.50
39777;DHT22;25453;48.162;14.510;2023-06-14T00:14:18;16.70;53.50
39777;DHT22;25453;48.162;14.510;2023-06-14T00:16:45;16.70;53.50
39777;DHT22;25453;48.162;14.510;2023-06-14T00:19:12;16.70;53.70
39777;DHT22;25453;48.162;14.510;2023-06-14T00:21:40;16.70;53.90
39777;DHT22;25453;48.162;14.510;2023-06-14T00:24:07;16.70;53.80
39777;DHT22;25453;48.162;14.510;2023-06-14T00:26:35;16.70;53.70
39777;DHT22;25453;48.162;14.510;2023-06-14T00:29:02;16.60;53.70
39777;DHT22;25453;48.162;14.510;2023-06-14T00:31:29;16.60;54.00
39777;DHT22;25453;48.162;14.510;2023-06-14T00:33:57;16.70;54.10
39777;DHT22;25453;48.162;14.510;2023-06-14T00:36:24;16.80;54.30
39777;DHT22;25453;48.162;14.510;2023-06-14T00:38:51;16.90;54.20
39777;DHT22;25453;48.162;14.510;2023-06-14T00:41:18;16.90;53.90
39777;DHT22;25453;48.162;14.510;2023-06-14T00:43:46;16.90;53.60
39777;DHT22;25453;48.162;14.510;2023-06-14T00:46:13;16.80;53.60
39777;DHT22;25453;48.162;14.510;2023-06-14T00:48:40;16.80;53.60
39777;DHT22;25453;48.162;14.510;2023-06-14T00:51:07;16.70;53.60
39777;DHT22;25453;48.162;14.510;2023-06-14T00:53:35;16.70;53.90
39777;DHT22;25453;48.162;14.510;2023-06-14T00:56:03;16.70;54.00
39777;DHT22;25453;48.162;14.510;2023-06-14T00:58:31;16.60;54.00
39777;DHT22;25453;48.162;14.510;2023-06-14T01:00:59;16.60;54.10
39777;DHT22;25453;48.162;14.510;2023-06-14T01:03:26;16.70;54.20
39777;DHT22;25453;48.162;14.510;2023-06-14T01:06:19;16.70;54.20
39777;DHT22;25453;48.162;14.510;2023-06-14T01:11:55;16.60;54.20
39777;DHT22;25453;48.162;14.510;2023-06-14T01:14:27;16.60;54.30
39777;DHT22;25453;48.162;14.510;2023-06-14T01:16:56;16.60;54.60
39777;DHT22;25453;48.162;14.510;2023-06-14T01:19:24;16.70;54.30
39777;DHT22;25453;48.162;14.510;2023-06-14T01:21:52;16.70;54.20
39777;DHT22;25453;48.162;14.510;2023-06-14T01:24:20;16.70;54.20
39777;DHT22;25453;48.162;14.510;2023-06-14T01:26:55;16.70;54.40
39777;DHT22;25453;48.162;14.510;2023-06-14T01:29:25;16.70;54.40
39777;DHT22;25453;48.162;14.510;2023-06-14T01:31:54;16.70;54.50
39777;DHT22;25453;48.162;14.510;2023-06-14T01:34:22;16.70;54.40
39777;DHT22;25453;48.162;14.510;2023-06-14T01:36:50;16.70;54.50
39777;DHT22;25453;48.162;14.510;2023-06-14T01:39:18;16.70;54.60
39777;DHT22;25453;48.162;14.510;2023-06-14T01:41:47;16.70;54.60
39777;DHT22;25453;48.162;14.510;2023-06-14T01:44:16;16.70;54.60
39777;DHT22;25453;48.162;14.510;2023-06-14T01:46:45;16.70;54.70
39777;DHT22;25453;48.162;14.510;2023-06-14T01:49:13;16.70;54.70
39777;DHT22;25453;48.162;14.510;2023-06-14T01:51:40;16.60;54.70
39777;DHT22;25453;48.162;14.510;2023-06-14T01:54:07;16.60;54.90
39777;DHT22;25453;48.162;14.510;2023-06-14T01:56:35;16.60;54.90
39777;DHT22;25453;48.162;14.510;2023-06-14T01:59:02;16.60;55.10
39777;DHT22;25453;48.162;14.510;2023-06-14T02:01:29;16.50;54.80
39777;DHT22;25453;48.162;14.510;2023-06-14T02:03:57;16.50;55.00
39777;DHT22;25453;48.162;14.510;2023-06-14T02:06:26;16.40;55.10
39777;DHT22;25453;48.162;14.510;2023-06-14T02:08:54;16.30;55.10
39777;DHT22;25453;48.162;14.510;2023-06-14T02:11:22;16.20;55.30
39777;DHT22;25453;48.162;14.510;2023-06-14T02:13:49;16.20;55.30
39777;DHT22;25453;48.162;14.510;2023-06-14T02:16:16;16.10;55.40
39777;DHT22;25453;48.162;14.510;2023-06-14T02:18:44;16.00;55.80
39777;DHT22;25453;48.162;14.510;2023-06-14T02:21:12;16.00;55.90
39777;DHT22;25453;48.162;14.510;2023-06-14T02:23:40;15.90;56.10
39777;DHT22;25453;48.162;14.510;2023-06-14T02:26:07;15.90;56.10
39777;DHT22;25453;48.162;14.510;2023-06-14T02:28:34;15.80;56.10
39777;DHT22;25453;48.162;14.510;2023-06-14T02:31:02;15.70;56.20
39777;DHT22;25453;48.162;14.510;2023-06-14T02:33:29;15.60;56.50
39777;DHT22;25453;48.162;14.510;2023-06-14T02:35:57;15.60;56.70
39777;DHT22;25453;48.162;14.510;2023-06-14T02:38:24;15.60;56.90
39777;DHT22;25453;48.162;14.510;2023-06-14T02:40:51;15.60;56.70
39777;DHT22;25453;48.162;14.510;2023-06-14T02:43:18;15.50;56.90
39777;DHT22;25453;48.162;14.510;2023-06-14T02:45:46;15.50;57.00
39777;DHT22;25453;48.162;14.510;2023-06-14T02:48:13;15.50;57.20
39777;DHT22;25453;48.162;14.510;2023-06-14T02:50:41;15.60;57.40
39777;DHT22;25453;48.162;14.510;2023-06-14T02:53:08;15.60;57.20
39777;DHT22;25453;48.162;14.510;2023-06-14T02:55:35;15.60;57.00
39777;DHT22;25453;48.162;14.510;2023-06-14T02:58:07;15.50;57.00
39777;DHT22;25453;48.162;14.510;2023-06-14T03:00:34;15.50;57.20
39777;DHT22;25453;48.162;14.510;2023-06-14T03:03:03;15.40;57.40
39777;DHT22;25453;48.162;14.510;2023-06-14T03:05:31;15.50;57.50
39777;DHT22;25453;48.162;14.510;2023-06-14T03:07:59;15.50;57.70
39777;DHT22;25453;48.162;14.510;2023-06-14T03:10:27;15.50;57.70
39777;DHT22;25453;48.162;14.510;2023-06-14T03:12:56;15.50;57.70
39777;DHT22;25453;48.162;14.510;2023-06-14T03:15:23;15.50;57.80
39777;DHT22;25453;48.162;14.510;2023-06-14T03:17:51;15.60;57.90
39777;DHT22;25453;48.162;14.510;2023-06-14T03:20:20;15.60;57.80
39777;DHT22;25453;48.162;14.510;2023-06-14T03:22:47;15.50;57.70
39777;DHT22;25453;48.162;14.510;2023-06-14T03:25:15;15.50;57.70
39777;DHT22;25453;48.162;14.510;2023-06-14T03:27:42;15.40;57.80
39777;DHT22;25453;48.162;14.510;2023-06-14T03:30:09;15.40;58.00
39777;DHT22;25453;48.162;14.510;2023-06-14T03:32:37;15.40;58.20
39777;DHT22;25453;48.162;14.510;2023-06-14T03:35:04;15.40;58.30
39777;DHT22;25453;48.162;14.510;2023-06-14T03:37:31;15.40;58.40
39777;DHT22;25453;48.162;14.510;2023-06-14T03:39:59;15.40;58.50
39777;DHT22;25453;48.162;14.510;2023-06-14T03:42:26;15.40;58.50
39777;DHT22;25453;48.162;14.510;2023-06-14T03:44:53;15.40;58.60
39777;DHT22;25453;48.162;14.510;2023-06-14T03:47:20;15.40;58.90
39777;DHT22;25453;48.162;14.510;2023-06-14T03:49:47;15.50;58.90
39777;DHT22;25453;48.162;14.510;2023-06-14T03:52:14;15.60;59.00
39777;DHT22;25453;48.162;14.510;2023-06-14T03:54:43;15.60;59.00
39777;DHT22;25453;48.162;14.510;2023-06-14T03:57:14;15.60;59.00
39777;DHT22;25453;48.162;14.510;2023-06-14T03:59:41;15.70;59.10
39777;DHT22;25453;48.162;14.510;2023-06-14T04:02:08;15.70;59.10
39777;DHT22;25453;48.162;14.510;2023-06-14T04:04:42;15.80;59.10
39777;DHT22;25453;48.162;14.510;2023-06-14T04:07:12;15.80;59.10
39777;DHT22;25453;48.162;14.510;2023-06-14T04:09:40;15.80;59.20
39777;DHT22;25453;48.162;14.510;2023-06-14T04:12:08;15.90;59.40
39777;DHT22;25453;48.162;14.510;2023-06-14T04:14:36;16.00;59.40
39777;DHT22;25453;48.162;14.510;2023-06-14T04:17:03;16.10;59.30
39777;DHT22;25453;48.162;14.510;2023-06-14T04:19:31;16.20;59.30
39777;DHT22;25453;48.162;14.510;2023-06-14T04:21:59;16.20;59.10
39777;DHT22;25453;48.162;14.510;2023-06-14T04:24:29;16.30;59.10
39777;DHT22;25453;48.162;14.510;2023-06-14T04:26:59;16.40;59.20
39777;DHT22;25453;48.162;14.510;2023-06-14T04:29:28;16.50;59.20
39777;DHT22;25453;48.162;14.510;2023-06-14T04:31:56;16.50;59.30
39777;DHT22;25453;48.162;14.510;2023-06-14T04:34:28;16.60;59.20
39777;DHT22;25453;48.162;14.510;2023-06-14T04:37:01;16.70;59.20
39777;DHT22;25453;48.162;14.510;2023-06-14T04:39:28;16.80;59.20
39777;DHT22;25453;48.162;14.510;2023-06-14T04:41:56;16.90;59.20
39777;DHT22;25453;48.162;14.510;2023-06-14T04:44:24;16.90;59.20
39777;DHT22;25453;48.162;14.510;2023-06-14T04:46:58;17.00;59.00
39777;DHT22;25453;48.162;14.510;2023-06-14T04:49:26;17.10;58.90
39777;DHT22;25453;48.162;14.510;2023-06-14T04:51:56;17.10;58.70
39777;DHT22;25453;48.162;14.510;2023-06-14T04:54:26;17.20;58.70
39777;DHT22;25453;48.162;14.510;2023-06-14T04:56:54;17.20;58.60
39777;DHT22;25453;48.162;14.510;2023-06-14T04:59:22;17.20;58.50
39777;DHT22;25453;48.162;14.510;2023-06-14T05:01:50;17.20;58.60
39777;DHT22;25453;48.162;14.510;2023-06-14T05:04:19;17.20;58.70
39777;DHT22;25453;48.162;14.510;2023-06-14T05:06:46;17.30;58.90
39777;DHT22;25453;48.162;14.510;2023-06-14T05:09:15;17.30;59.10
39777;DHT22;25453;48.162;14.510;2023-06-14T05:11:44;17.40;59.20
39777;DHT22;25453;48.162;14.510;2023-06-14T05:14:12;17.50;59.20
39777;DHT22;25453;48.162;14.510;2023-06-14T05:16:39;17.60;59.20
39777;DHT22;25453;48.162;14.510;2023-06-14T05:19:07;17.70;59.10
39777;DHT22;25453;48.162;14.510;2023-06-14T05:21:34;17.80;59.00
39777;DHT22;25453;48.162;14.510;2023-06-14T05:24:09;17.80;58.90
39777;DHT22;25453;48.162;14.510;2023-06-14T05:26:36;17.90;58.70
39777;DHT22;25453;48.162;14.510;2023-06-14T05:29:03;17.90;58.60
39777;DHT22;25453;48.162;14.510;2023-06-14T05:31:31;17.80;58.60
39777;DHT22;25453;48.162;14.510;2023-06-14T05:33:58;17.80;58.50
39777;DHT22;25453;48.162;14.510;2023-06-14T05:36:25;17.80;58.70
39777;DHT22;25453;48.162;14.510;2023-06-14T05:38:54;17.90;58.70
39777;DHT22;25453;48.162;14.510;2023-06-14T05:41:27;17.90;58.90
39777;DHT22;25453;48.162;14.510;2023-06-14T05:43:55;18.00;59.00
39777;DHT22;25453;48.162;14.510;2023-06-14T05:46:23;18.10;58.90
39777;DHT22;25453;48.162;14.510;2023-06-14T05:48:55;18.20;58.80
39777;DHT22;25453;48.162;14.510;2023-06-14T05:51:23;18.20;58.70
39777;DHT22;25453;48.162;14.510;2023-06-14T05:53:52;18.20;58.50
39777;DHT22;25453;48.162;14.510;2023-06-14T05:56:19;18.30;58.40
39777;DHT22;25453;48.162;14.510;2023-06-14T05:58:47;18.30;58.40
39777;DHT22;25453;48.162;14.510;2023-06-14T06:01:15;18.40;58.20
39777;DHT22;25453;48.162;14.510;2023-06-14T06:03:42;18.40;58.00
39777;DHT22;25453;48.162;14.510;2023-06-14T06:06:14;18.50;57.90
39777;DHT22;25453;48.162;14.510;2023-06-14T06:08:41;18.50;57.70
39777;DHT22;25453;48.162;14.510;2023-06-14T06:11:08;18.50;57.60
39777;DHT22;25453;48.162;14.510;2023-06-14T06:13:35;18.50;57.40
39777;DHT22;25453;48.162;14.510;2023-06-14T06:16:03;18.60;57.40
39777;DHT22;25453;48.162;14.510;2023-06-14T06:18:31;18.60;57.50
39777;DHT22;25453;48.162;14.510;2023-06-14T06:20:59;18.60;57.50
39777;DHT22;25453;48.162;14.510;2023-06-14T06:23:26;18.70;57.40
39777;DHT22;25453;48.162;14.510;2023-06-14T06:25:53;18.60;57.20
39777;DHT22;25453;48.162;14.510;2023-06-14T06:28:20;18.70;57.40
39777;DHT22;25453;48.162;14.510;2023-06-14T06:30:48;18.70;57.50
39777;DHT22;25453;48.162;14.510;2023-06-14T06:33:15;18.70;57.50
39777;DHT22;25453;48.162;14.510;2023-06-14T06:35:42;18.80;57.50
39777;DHT22;25453;48.162;14.510;2023-06-14T06:38:09;18.80;57.30
39777;DHT22;25453;48.162;14.510;2023-06-14T06:40:37;18.90;57.20
39777;DHT22;25453;48.162;14.510;2023-06-14T06:43:04;18.90;57.30
39777;DHT22;25453;48.162;14.510;2023-06-14T06:45:31;18.90;57.40
39777;DHT22;25453;48.162;14.510;2023-06-14T06:48:00;18.90;57.50
39777;DHT22;25453;48.162;14.510;2023-06-14T06:50:27;19.00;57.50
39777;DHT22;25453;48.162;14.510;2023-06-14T06:53:01;19.00;57.40
39777;DHT22;25453;48.162;14.510;2023-06-14T06:55:28;19.10;57.50
39777;DHT22;25453;48.162;14.510;2023-06-14T06:57:56;19.10;57.40
39777;DHT22;25453;48.162;14.510;2023-06-14T07:00:23;19.10;57.30
39777;DHT22;25453;48.162;14.510;2023-06-14T07:02:54;19.10;57.20
39777;DHT22;25453;48.162;14.510;2023-06-14T07:05:22;19.20;57.10
39777;DHT22;25453;48.162;14.510;2023-06-14T07:07:49;19.20;57.00
39777;DHT22;25453;48.162;14.510;2023-06-14T07:10:17;19.30;56.80
39777;DHT22;25453;48.162;14.510;2023-06-14T07:12:46;19.30;56.80
39777;DHT22;25453;48.162;14.510;2023-06-14T07:15:14;19.30;56.60
39777;DHT22;25453;48.162;14.510;2023-06-14T07:17:41;19.40;56.60
39777;DHT22;25453;48.162;14.510;2023-06-14T07:20:11;19.40;56.60
39777;DHT22;25453;48.162;14.510;2023-06-14T07:22:42;19.40;56.60
39777;DHT22;25453;48.162;14.510;2023-06-14T07:25:10;19.50;56.80
39777;DHT22;25453;48.162;14.510;2023-06-14T07:27:43;19.50;56.70
39777;DHT22;25453;48.162;14.510;2023-06-14T07:30:11;19.50;56.70
39777;DHT22;25453;48.162;14.510;2023-06-14T07:32:39;19.60;56.70
39777;DHT22;25453;48.162;14.510;2023-06-14T07:35:07;19.60;56.80
39777;DHT22;25453;48.162;14.510;2023-06-14T07:37:34;19.60;56.80
39777;DHT22;25453;48.162;14.510;2023-06-14T07:40:02;19.70;56.70
39777;DHT22;25453;48.162;14.510;2023-06-14T07:42:34;19.70;56.80
39777;DHT22;25453;48.162;14.510;2023-06-14T07:45:05;19.80;56.80
39777;DHT22;25453;48.162;14.510;2023-06-14T07:47:33;19.80;56.90
39777;DHT22;25453;48.162;14.510;2023-06-14T07:50:00;19.90;56.70
39777;DHT22;25453;48.162;14.510;2023-06-14T07:52:27;19.90;56.60
39777;DHT22;25453;48.162;14.510;2023-06-14T07:54:55;20.00;56.40
39777;DHT22;25453;48.162;14.510;2023-06-14T07:57:22;20.00;56.40
39777;DHT22;25453;48.162;14.510;2023-06-14T07:59:50;20.10;56.00
39777;DHT22;25453;48.162;14.510;2023-06-14T08:02:17;20.00;55.50
39777;DHT22;25453;48.162;14.510;2023-06-14T08:04:45;20.10;55.00
39777;DHT22;25453;48.162;14.510;2023-06-14T08:07:14;20.10;55.20
39777;DHT22;25453;48.162;14.510;2023-06-14T08:09:41;20.10;55.40
39777;DHT22;25453;48.162;14.510;2023-06-14T08:12:08;20.10;55.50
39777;DHT22;25453;48.162;14.510;2023-06-14T08:14:39;20.20;55.30
39777;DHT22;25453;48.162;14.510;2023-06-14T08:17:07;20.30;55.20
39777;DHT22;25453;48.162;14.510;2023-06-14T08:19:34;20.40;55.00
39777;DHT22;25453;48.162;14.510;2023-06-14T08:22:01;20.40;55.00
39777;DHT22;25453;48.162;14.510;2023-06-14T08:24:30;20.40;54.90
39777;DHT22;25453;48.162;14.510;2023-06-14T08:26:58;20.50;54.90
39777;DHT22;25453;48.162;14.510;2023-06-14T08:29:27;20.50;54.80
39777;DHT22;25453;48.162;14.510;2023-06-14T08:31:57;20.60;54.80
39777;DHT22;25453;48.162;14.510;2023-06-14T08:34:25;20.70;54.90
39777;DHT22;25453;48.162;14.510;2023-06-14T08:36:52;20.70;54.60
39777;DHT22;25453;48.162;14.510;2023-06-14T08:39:19;20.80;54.40
39777;DHT22;25453;48.162;14.510;2023-06-14T08:41:47;20.90;54.30
39777;DHT22;25453;48.162;14.510;2023-06-14T08:44:18;20.90;54.30
39777;DHT22;25453;48.162;14.510;2023-06-14T08:46:48;21.00;54.20
39777;DHT22;25453;48.162;14.510;2023-06-14T08:49:16;21.00;54.30
39777;DHT22;25453;48.162;14.510;2023-06-14T08:51:44;21.10;54.30
39777;DHT22;25453;48.162;14.510;2023-06-14T08:54:12;21.10;53.70
39777;DHT22;25453;48.162;14.510;2023-06-14T08:56:40;21.20;53.50
39777;DHT22;25453;48.162;14.510;2023-06-14T08:59:09;21.20;53.60
39777;DHT22;25453;48.162;14.510;2023-06-14T09:01:37;21.20;53.60
39777;DHT22;25453;48.162;14.510;2023-06-14T09:04:05;21.30;53.60
39777;DHT22;25453;48.162;14.510;2023-06-14T09:06:32;21.40;53.50
39777;DHT22;25453;48.162;14.510;2023-06-14T09:08:59;21.50;53.40
39777;DHT22;25453;48.162;14.510;2023-06-14T09:11:28;21.50;53.40
39777;DHT22;25453;48.162;14.510;2023-06-14T09:13:55;21.60;53.40
39777;DHT22;25453;48.162;14.510;2023-06-14T09:16:22;21.80;53.10
39777;DHT22;25453;48.162;14.510;2023-06-14T09:18:49;21.90;52.70
39777;DHT22;25453;48.162;14.510;2023-06-14T09:21:17;22.00;52.70
39777;DHT22;25453;48.162;14.510;2023-06-14T09:23:47;22.10;52.50
39777;DHT22;25453;48.162;14.510;2023-06-14T09:26:17;22.20;52.40
39777;DHT22;25453;48.162;14.510;2023-06-14T09:28:46;22.30;52.30
39777;DHT22;25453;48.162;14.510;2023-06-14T09:31:14;22.50;52.20
39777;DHT22;25453;48.162;14.510;2023-06-14T09:33:47;22.60;51.80
39777;DHT22;25453;48.162;14.510;2023-06-14T09:36:18;22.70;51.50
39777;DHT22;25453;48.162;14.510;2023-06-14T09:38:59;22.80;51.20
39777;DHT22;25453;48.162;14.510;2023-06-14T09:41:37;23.00;51.10
39777;DHT22;25453;48.162;14.510;2023-06-14T09:44:07;23.20;51.00
39777;DHT22;25453;48.162;14.510;2023-06-14T09:46:40;23.40;51.00
39777;DHT22;25453;48.162;14.510;2023-06-14T09:49:08;23.50;50.90
39777;DHT22;25453;48.162;14.510;2023-06-14T09:51:45;23.70;50.30
39777;DHT22;25453;48.162;14.510;2023-06-14T09:54:16;23.90;49.80
39777;DHT22;25453;48.162;14.510;2023-06-14T09:56:47;24.10;49.80
39777;DHT22;25453;48.162;14.510;2023-06-14T09:59:19;24.30;49.70
39777;DHT22;25453;48.162;14.510;2023-06-14T10:01:49;24.60;49.20
39777;DHT22;25453;48.162;14.510;2023-06-14T11:14:03;27.50;36.40
39777;DHT22;25453;48.162;14.510;2023-06-14T11:51:19;27.10;37.90
39777;DHT22;25453;48.162;14.510;2023-06-14T11:57:39;27.10;37.10
39777;DHT22;25453;48.162;14.510;2023-06-14T12:00:07;27.00;37.40
39777;DHT22;25453;48.162;14.510;2023-06-14T12:02:39;27.10;37.10
39777;DHT22;25453;48.162;14.510;2023-06-14T12:05:08;27.10;37.20
39777;DHT22;25453;48.162;14.510;2023-06-14T12:07:37;27.20;37.40
39777;DHT22;25453;48.162;14.510;2023-06-14T12:10:10;27.30;37.30
39777;DHT22;25453;48.162;14.510;2023-06-14T12:12:39;27.50;37.30
39777;DHT22;25453;48.162;14.510;2023-06-14T12:15:08;27.70;37.00
39777;DHT22;25453;48.162;14.510;2023-06-14T12:17:36;27.60;36.40
39777;DHT22;25453;48.162;14.510;2023-06-14T12:20:12;27.50;36.10
39777;DHT22;25453;48.162;14.510;2023-06-14T12:22:53;27.20;35.90
39777;DHT22;25453;48.162;14.510;2023-06-14T12:28:09;26.50;36.20
39777;DHT22;25453;48.162;14.510;2023-06-14T12:30:38;26.30;36.80
39777;DHT22;25453;48.162;14.510;2023-06-14T12:33:05;26.20;37.00
39777;DHT22;25453;48.162;14.510;2023-06-14T12:35:34;26.20;37.20
39777;DHT22;25453;48.162;14.510;2023-06-14T12:38:01;26.20;37.60
39777;DHT22;25453;48.162;14.510;2023-06-14T12:40:30;26.40;38.00
39777;DHT22;25453;48.162;14.510;2023-06-14T12:42:58;26.60;37.70
39777;DHT22;25453;48.162;14.510;2023-06-14T12:45:25;26.80;37.70
39777;DHT22;25453;48.162;14.510;2023-06-14T12:47:52;27.00;37.30
39777;DHT22;25453;48.162;14.510;2023-06-14T12:50:19;27.20;36.90
39777;DHT22;25453;48.162;14.510;2023-06-14T12:52:51;27.40;36.70
39777;DHT22;25453;48.162;14.510;2023-06-14T12:55:18;27.60;36.80
39777;DHT22;25453;48.162;14.510;2023-06-14T12:57:46;27.90;36.90
39777;DHT22;25453;48.162;14.510;2023-06-14T13:00:17;28.00;36.40
39777;DHT22;25453;48.162;14.510;2023-06-14T13:02:44;28.00;36.10
39777;DHT22;25453;48.162;14.510;2023-06-14T13:05:11;27.90;36.00
39777;DHT22;25453;48.162;14.510;2023-06-14T13:07:39;27.60;35.80
39777;DHT22;25453;48.162;14.510;2023-06-14T13:10:06;27.30;35.90
39777;DHT22;25453;48.162;14.510;2023-06-14T13:12:33;27.00;36.20
39777;DHT22;25453;48.162;14.510;2023-06-14T13:15:00;26.60;36.30
39777;DHT22;25453;48.162;14.510;2023-06-14T13:17:28;26.30;36.50
39777;DHT22;25453;48.162;14.510;2023-06-14T13:19:55;26.00;36.80
39777;DHT22;25453;48.162;14.510;2023-06-14T13:22:22;25.70;37.20
39777;DHT22;25453;48.162;14.510;2023-06-14T13:24:49;25.50;37.80
39777;DHT22;25453;48.162;14.510;2023-06-14T13:27:16;25.30;38.20
39777;DHT22;25453;48.162;14.510;2023-06-14T13:29:43;25.10;38.50
39777;DHT22;25453;48.162;14.510;2023-06-14T13:32:10;25.00;38.90
39777;DHT22;25453;48.162;14.510;2023-06-14T13:34:38;24.90;39.00
39777;DHT22;25453;48.162;14.510;2023-06-14T13:37:05;24.70;39.00
39777;DHT22;25453;48.162;14.510;2023-06-14T13:39:32;24.50;39.20
39777;DHT22;25453;48.162;14.510;2023-06-14T13:41:59;24.40;39.50
39777;DHT22;25453;48.162;14.510;2023-06-14T13:44:26;24.30;39.70
39777;DHT22;25453;48.162;14.510;2023-06-14T13:46:53;24.20;40.10
39777;DHT22;25453;48.162;14.510;2023-06-14T13:49:20;24.20;40.30
39777;DHT22;25453;48.162;14.510;2023-06-14T13:51:48;24.10;40.70
39777;DHT22;25453;48.162;14.510;2023-06-14T13:54:19;24.10;40.90
39777;DHT22;25453;48.162;14.510;2023-06-14T13:56:47;24.10;41.00
39777;DHT22;25453;48.162;14.510;2023-06-14T13:59:14;24.00;41.00
39777;DHT22;25453;48.162;14.510;2023-06-14T14:01:43;24.00;41.20
39777;DHT22;25453;48.162;14.510;2023-06-14T14:04:10;24.00;41.40
39777;DHT22;25453;48.162;14.510;2023-06-14T14:06:38;24.00;41.40
39777;DHT22;25453;48.162;14.510;2023-06-14T14:09:05;24.00;41.50
39777;DHT22;25453;48.162;14.510;2023-06-14T14:11:32;24.00;41.60
39777;DHT22;25453;48.162;14.510;2023-06-14T14:14:00;24.00;41.70
39777;DHT22;25453;48.162;14.510;2023-06-14T14:16:29;24.00;41.60
39777;DHT22;25453;48.162;14.510;2023-06-14T14:18:57;24.10;41.80
39777;DHT22;25453;48.162;14.510;2023-06-14T14:21:24;24.20;41.60
39777;DHT22;25453;48.162;14.510;2023-06-14T14:23:52;24.40;41.60
39777;DHT22;25453;48.162;14.510;2023-06-14T14:26:19;24.60;41.50
39777;DHT22;25453;48.162;14.510;2023-06-14T14:28:47;24.80;41.40
39777;DHT22;25453;48.162;14.510;2023-06-14T14:31:14;25.10;41.10
39777;DHT22;25453;48.162;14.510;2023-06-14T14:33:41;25.40;40.90
39777;DHT22;25453;48.162;14.510;2023-06-14T14:36:08;25.70;40.20
39777;DHT22;25453;48.162;14.510;2023-06-14T14:38:38;25.90;39.50
39777;DHT22;25453;48.162;14.510;2023-06-14T14:41:06;26.00;39.30
39777;DHT22;25453;48.162;14.510;2023-06-14T14:43:33;26.00;39.20
39777;DHT22;25453;48.162;14.510;2023-06-14T14:46:00;26.00;38.90
39777;DHT22;25453;48.162;14.510;2023-06-14T14:48:27;26.10;38.90
39777;DHT22;25453;48.162;14.510;2023-06-14T14:50:54;26.00;38.70
39777;DHT22;25453;48.162;14.510;2023-06-14T14:53:22;26.00;38.70
39777;DHT22;25453;48.162;14.510;2023-06-14T14:55:49;25.90;38.70
39777;DHT22;25453;48.162;14.510;2023-06-14T14:58:16;25.90;38.80
39777;DHT22;25453;48.162;14.510;2023-06-14T15:00:47;25.80;38.80
39777;DHT22;25453;48.162;14.510;2023-06-14T15:03:15;25.70;38.90
39777;DHT22;25453;48.162;14.510;2023-06-14T15:05:42;25.70;38.80
39777;DHT22;25453;48.162;14.510;2023-06-14T15:08:10;25.60;39.10
39777;DHT22;25453;48.162;14.510;2023-06-14T15:10:40;25.70;39.20
39777;DHT22;25453;48.162;14.510;2023-06-14T15:13:08;25.70;39.30
39777;DHT22;25453;48.162;14.510;2023-06-14T15:15:36;25.80;39.20
39777;DHT22;25453;48.162;14.510;2023-06-14T15:18:04;25.80;38.70
39777;DHT22;25453;48.162;14.510;2023-06-14T15:20:31;25.80;38.40
39777;DHT22;25453;48.162;14.510;2023-06-14T15:22:58;25.70;38.60
39777;DHT22;25453;48.162;14.510;2023-06-14T15:25:27;25.60;38.30
39777;DHT22;25453;48.162;14.510;2023-06-14T15:27:54;25.50;38.60
39777;DHT22;25453;48.162;14.510;2023-06-14T15:30:22;25.50;38.60
39777;DHT22;25453;48.162;14.510;2023-06-14T15:32:49;25.40;38.60
39777;DHT22;25453;48.162;14.510;2023-06-14T15:35:18;25.40;38.60
39777;DHT22;25453;48.162;14.510;2023-06-14T15:37:46;25.30;38.70
39777;DHT22;25453;48.162;14.510;2023-06-14T15:40:15;25.30;38.80
39777;DHT22;25453;48.162;14.510;2023-06-14T15:42:42;25.30;38.70
39777;DHT22;25453;48.162;14.510;2023-06-14T15:45:10;25.30;38.40
39777;DHT22;25453;48.162;14.510;2023-06-14T15:47:37;25.30;38.40
39777;DHT22;25453;48.162;14.510;2023-06-14T15:50:05;25.20;38.50
39777;DHT22;25453;48.162;14.510;2023-06-14T15:52:34;25.20;38.40
39777;DHT22;25453;48.162;14.510;2023-06-14T15:55:02;25.20;38.60
39777;DHT22;25453;48.162;14.510;2023-06-14T15:57:30;25.20;38.90
39777;DHT22;25453;48.162;14.510;2023-06-14T15:59:57;25.10;39.00
39777;DHT22;25453;48.162;14.510;2023-06-14T16:02:24;25.10;39.20
39777;DHT22;25453;48.162;14.510;2023-06-14T16:04:52;25.10;39.40
39777;DHT22;25453;48.162;14.510;2023-06-14T16:07:19;25.10;39.50
39777;DHT22;25453;48.162;14.510;2023-06-14T16:09:46;25.10;39.50
39777;DHT22;25453;48.162;14.510;2023-06-14T16:12:13;25.10;39.50
39777;DHT22;25453;48.162;14.510;2023-06-14T16:14:40;25.00;39.50
39777;DHT22;25453;48.162;14.510;2023-06-14T16:17:08;25.00;39.50
39777;DHT22;25453;48.162;14.510;2023-06-14T16:19:35;25.00;39.50
39777;DHT22;25453;48.162;14.510;2023-06-14T16:22:02;24.90;39.40
39777;DHT22;25453;48.162;14.510;2023-06-14T16:24:33;24.90;39.40
39777;DHT22;25453;48.162;14.510;2023-06-14T16:27:00;24.90;39.20
39777;DHT22;25453;48.162;14.510;2023-06-14T16:29:29;24.80;39.30
39777;DHT22;25453;48.162;14.510;2023-06-14T16:31:56;24.80;39.40
39777;DHT22;25453;48.162;14.510;2023-06-14T16:34:23;24.70;39.40
39777;DHT22;25453;48.162;14.510;2023-06-14T16:36:50;24.70;39.40
39777;DHT22;25453;48.162;14.510;2023-06-14T16:39:17;24.70;39.50
39777;DHT22;25453;48.162;14.510;2023-06-14T16:41:44;24.70;39.40
39777;DHT22;25453;48.162;14.510;2023-06-14T16:44:15;24.70;39.30
39777;DHT22;25453;48.162;14.510;2023-06-14T16:46:42;24.60;39.20
39777;DHT22;25453;48.162;14.510;2023-06-14T16:49:09;24.60;39.30
39777;DHT22;25453;48.162;14.510;2023-06-14T16:51:37;24.60;39.20
39777;DHT22;25453;48.162;14.510;2023-06-14T16:54:04;24.50;39.10
39777;DHT22;25453;48.162;14.510;2023-06-14T16:56:31;24.50;39.10
39777;DHT22;25453;48.162;14.510;2023-06-14T16:58:58;24.40;39.20
39777;DHT22;25453;48.162;14.510;2023-06-14T17:01:26;24.40;39.30
39777;DHT22;25453;48.162;14.510;2023-06-14T17:03:53;24.40;39.50
39777;DHT22;25453;48.162;14.510;2023-06-14T17:06:21;24.30;39.50
39777;DHT22;25453;48.162;14.510;2023-06-14T17:08:49;24.20;39.70
39777;DHT22;25453;48.162;14.510;2023-06-14T17:11:20;24.20;39.80
39777;DHT22;25453;48.162;14.510;2023-06-14T17:13:50;24.10;40.00
39777;DHT22;25453;48.162;14.510;2023-06-14T17:16:19;24.00;40.10